sensor_id;sensor_type;location;lat;lon;timestamp;P1;durP1;ratioP1;P2;durP2;ratioP2
18905;SDS011;9585;51.018;4.282;2023-08-08T00:00:33;4.50;;;2.03;;
18905;SDS011;9585;51.018;4.282;2023-08-08T00:03:01;3.10;;;1.88;;
18905;SDS011;9585;51.018;4.282;2023-08-08T00:05:29;6.40;;;2.20;;
18905;SDS011;9585;51.018;4.282;2023-08-08T00:07:57;5.60;;;1.70;;
18905;SDS011;9585;51.018;4.282;2023-08-08T00:10:29;3.33;;;1.88;;
18905;SDS011;9585;51.018;4.282;2023-08-08T00:12:57;4.35;;;1.80;;
18905;SDS011;9585;51.018;4.282;2023-08-08T00:15:24;4.03;;;1.83;;
18905;SDS011;9585;51.018;4.282;2023-08-08T00:17:53;5.38;;;2.20;;
18905;SDS011;9585;51.018;4.282;2023-08-08T00:20:23;4.38;;;2.15;;
18905;SDS011;9585;51.018;4.282;2023-08-08T00:22:54;4.55;;;1.80;;
18905;SDS011;9585;51.018;4.282;2023-08-08T00:25:21;4.50;;;1.90;;
18905;SDS011;9585;51.018;4.282;2023-08-08T00:27:49;4.38;;;1.95;;
18905;SDS011;9585;51.018;4.282;2023-08-08T00:30:18;4.00;;;2.22;;
18905;SDS011;9585;51.018;4.282;2023-08-08T00:32:48;4.25;;;2.13;;
18905;SDS011;9585;51.018;4.282;2023-08-08T00:35:17;3.83;;;1.88;;
18905;SDS011;9585;51.018;4.282;2023-08-08T00:37:45;6.53;;;2.20;;
18905;SDS011;9585;51.018;4.282;2023-08-08T00:40:13;3.72;;;2.03;;
18905;SDS011;9585;51.018;4.282;2023-08-08T00:42:42;2.70;;;1.83;;
18905;SDS011;9585;51.018;4.282;2023-08-08T00:45:10;7.93;;;2.08;;
18905;SDS011;9585;51.018;4.282;2023-08-08T00:47:37;4.50;;;2.28;;
18905;SDS011;9585;51.018;4.282;2023-08-08T00:50:05;3.17;;;1.90;;
18905;SDS011;9585;51.018;4.282;2023-08-08T00:52:39;3.25;;;2.00;;
18905;SDS011;9585;51.018;4.282;2023-08-08T00:55:08;4.65;;;2.10;;
18905;SDS011;9585;51.018;4.282;2023-08-08T00:57:36;6.65;;;2.10;;
18905;SDS011;9585;51.018;4.282;2023-08-08T01:00:05;5.22;;;2.13;;
18905;SDS011;9585;51.018;4.282;2023-08-08T01:02:35;4.45;;;1.95;;
18905;SDS011;9585;51.018;4.282;2023-08-08T01:05:03;4.55;;;2.30;;
18905;SDS011;9585;51.018;4.282;2023-08-08T01:07:35;4.75;;;1.98;;
18905;SDS011;9585;51.018;4.282;2023-08-08T01:10:10;5.43;;;2.20;;
18905;SDS011;9585;51.018;4.282;2023-08-08T01:12:44;3.53;;;2.00;;
18905;SDS011;9585;51.018;4.282;2023-08-08T01:15:13;4.45;;;2.20;;
18905;SDS011;9585;51.018;4.282;2023-08-08T01:17:42;4.72;;;2.20;;
18905;SDS011;9585;51.018;4.282;2023-08-08T01:20:12;6.10;;;1.85;;
18905;SDS011;9585;51.018;4.282;2023-08-08T01:22:43;6.38;;;1.90;;
18905;SDS011;9585;51.018;4.282;2023-08-08T01:25:19;5.13;;;2.20;;
18905;SDS011;9585;51.018;4.282;2023-08-08T01:27:48;7.05;;;2.20;;
18905;SDS011;9585;51.018;4.282;2023-08-08T01:30:16;4.97;;;2.40;;
18905;SDS011;9585;51.018;4.282;2023-08-08T01:32:43;7.68;;;2.28;;
18905;SDS011;9585;51.018;4.282;2023-08-08T01:35:11;5.82;;;2.80;;
18905;SDS011;9585;51.018;4.282;2023-08-08T01:37:39;5.47;;;2.38;;
18905;SDS011;9585;51.018;4.282;2023-08-08T01:40:12;6.38;;;2.67;;
18905;SDS011;9585;51.018;4.282;2023-08-08T01:42:43;6.45;;;2.63;;
18905;SDS011;9585;51.018;4.282;2023-08-08T01:45:13;4.50;;;2.13;;
18905;SDS011;9585;51.018;4.282;2023-08-08T01:47:42;5.93;;;2.85;;
18905;SDS011;9585;51.018;4.282;2023-08-08T01:50:09;7.65;;;2.50;;
18905;SDS011;9585;51.018;4.282;2023-08-08T01:52:37;3.53;;;2.40;;
18905;SDS011;9585;51.018;4.282;2023-08-08T01:55:05;6.82;;;2.90;;
18905;SDS011;9585;51.018;4.282;2023-08-08T01:57:35;7.95;;;2.90;;
18905;SDS011;9585;51.018;4.282;2023-08-08T02:00:11;10.73;;;3.10;;
18905;SDS011;9585;51.018;4.282;2023-08-08T02:02:39;9.93;;;3.65;;
18905;SDS011;9585;51.018;4.282;2023-08-08T02:05:06;9.60;;;2.95;;
18905;SDS011;9585;51.018;4.282;2023-08-08T02:07:34;11.45;;;3.10;;
18905;SDS011;9585;51.018;4.282;2023-08-08T02:10:01;6.68;;;2.58;;
18905;SDS011;9585;51.018;4.282;2023-08-08T02:12:29;8.38;;;3.00;;
18905;SDS011;9585;51.018;4.282;2023-08-08T02:14:57;5.57;;;2.80;;
18905;SDS011;9585;51.018;4.282;2023-08-08T02:17:26;6.80;;;2.92;;
18905;SDS011;9585;51.018;4.282;2023-08-08T02:19:54;6.30;;;2.50;;
18905;SDS011;9585;51.018;4.282;2023-08-08T02:22:22;7.72;;;3.10;;
18905;SDS011;9585;51.018;4.282;2023-08-08T02:24:49;7.18;;;2.65;;
18905;SDS011;9585;51.018;4.282;2023-08-08T02:27:17;8.82;;;2.90;;
18905;SDS011;9585;51.018;4.282;2023-08-08T02:29:44;6.20;;;3.00;;
18905;SDS011;9585;51.018;4.282;2023-08-08T02:32:12;7.72;;;3.05;;
18905;SDS011;9585;51.018;4.282;2023-08-08T02:34:41;11.05;;;3.35;;
18905;SDS011;9585;51.018;4.282;2023-08-08T02:37:09;8.52;;;3.00;;
18905;SDS011;9585;51.018;4.282;2023-08-08T02:39:38;6.85;;;2.90;;
18905;SDS011;9585;51.018;4.282;2023-08-08T02:42:07;9.43;;;3.08;;
18905;SDS011;9585;51.018;4.282;2023-08-08T02:44:37;11.07;;;3.28;;
18905;SDS011;9585;51.018;4.282;2023-08-08T02:47:05;8.75;;;2.97;;
18905;SDS011;9585;51.018;4.282;2023-08-08T02:49:32;4.45;;;2.47;;
18905;SDS011;9585;51.018;4.282;2023-08-08T02:52:04;8.95;;;3.00;;
18905;SDS011;9585;51.018;4.282;2023-08-08T02:54:32;7.30;;;2.60;;
18905;SDS011;9585;51.018;4.282;2023-08-08T02:57:00;10.18;;;3.17;;
18905;SDS011;9585;51.018;4.282;2023-08-08T02:59:27;6.88;;;3.33;;
18905;SDS011;9585;51.018;4.282;2023-08-08T03:01:55;7.43;;;3.28;;
18905;SDS011;9585;51.018;4.282;2023-08-08T03:04:23;6.60;;;2.90;;
18905;SDS011;9585;51.018;4.282;2023-08-08T03:06:50;6.72;;;3.10;;
18905;SDS011;9585;51.018;4.282;2023-08-08T03:09:19;8.48;;;3.35;;
18905;SDS011;9585;51.018;4.282;2023-08-08T03:11:47;8.52;;;3.35;;
18905;SDS011;9585;51.018;4.282;2023-08-08T03:14:14;6.93;;;2.78;;
18905;SDS011;9585;51.018;4.282;2023-08-08T03:16:43;7.55;;;3.30;;
18905;SDS011;9585;51.018;4.282;2023-08-08T03:19:11;8.35;;;3.08;;
18905;SDS011;9585;51.018;4.282;2023-08-08T03:21:39;5.05;;;2.83;;
18905;SDS011;9585;51.018;4.282;2023-08-08T03:24:06;7.55;;;2.80;;
18905;SDS011;9585;51.018;4.282;2023-08-08T03:26:36;9.23;;;3.20;;
18905;SDS011;9585;51.018;4.282;2023-08-08T03:29:03;9.43;;;3.10;;
18905;SDS011;9585;51.018;4.282;2023-08-08T03:31:35;9.00;;;3.13;;
18905;SDS011;9585;51.018;4.282;2023-08-08T03:34:02;8.98;;;3.45;;
18905;SDS011;9585;51.018;4.282;2023-08-08T03:36:30;9.60;;;3.53;;
18905;SDS011;9585;51.018;4.282;2023-08-08T03:38:57;10.05;;;3.33;;
18905;SDS011;9585;51.018;4.282;2023-08-08T03:41:31;8.77;;;2.90;;
18905;SDS011;9585;51.018;4.282;2023-08-08T03:44:01;10.13;;;3.08;;
18905;SDS011;9585;51.018;4.282;2023-08-08T03:46:29;9.27;;;3.70;;
18905;SDS011;9585;51.018;4.282;2023-08-08T03:48:57;7.18;;;2.75;;
18905;SDS011;9585;51.018;4.282;2023-08-08T03:51:25;7.60;;;3.35;;
18905;SDS011;9585;51.018;4.282;2023-08-08T03:53:55;9.63;;;3.33;;
18905;SDS011;9585;51.018;4.282;2023-08-08T03:56:25;11.20;;;3.50;;
18905;SDS011;9585;51.018;4.282;2023-08-08T03:59:04;9.75;;;3.35;;
18905;SDS011;9585;51.018;4.282;2023-08-08T04:01:32;12.32;;;3.80;;
18905;SDS011;9585;51.018;4.282;2023-08-08T04:04:03;7.82;;;3.30;;
18905;SDS011;9585;51.018;4.282;2023-08-08T04:06:31;9.60;;;3.20;;
18905;SDS011;9585;51.018;4.282;2023-08-08T04:09:01;8.52;;;3.60;;
18905;SDS011;9585;51.018;4.282;2023-08-08T04:11:30;7.88;;;3.30;;
18905;SDS011;9585;51.018;4.282;2023-08-08T04:13:57;7.95;;;3.55;;
18905;SDS011;9585;51.018;4.282;2023-08-08T04:16:28;5.03;;;3.10;;
18905;SDS011;9585;51.018;4.282;2023-08-08T04:18:55;7.22;;;3.33;;
18905;SDS011;9585;51.018;4.282;2023-08-08T04:21:28;8.40;;;3.85;;
18905;SDS011;9585;51.018;4.282;2023-08-08T04:24:01;11.60;;;3.70;;
18905;SDS011;9585;51.018;4.282;2023-08-08T04:26:33;10.10;;;3.25;;
18905;SDS011;9585;51.018;4.282;2023-08-08T04:29:04;12.93;;;3.88;;
18905;SDS011;9585;51.018;4.282;2023-08-08T04:31:34;8.35;;;3.13;;
18905;SDS011;9585;51.018;4.282;2023-08-08T04:34:03;12.07;;;4.03;;
18905;SDS011;9585;51.018;4.282;2023-08-08T04:36:34;7.18;;;3.30;;
18905;SDS011;9585;51.018;4.282;2023-08-08T04:39:02;7.88;;;3.42;;
18905;SDS011;9585;51.018;4.282;2023-08-08T04:41:29;8.30;;;3.20;;
18905;SDS011;9585;51.018;4.282;2023-08-08T04:43:57;9.35;;;3.55;;
18905;SDS011;9585;51.018;4.282;2023-08-08T04:46:24;8.23;;;3.15;;
18905;SDS011;9585;51.018;4.282;2023-08-08T04:48:54;11.70;;;3.90;;
18905;SDS011;9585;51.018;4.282;2023-08-08T04:51:22;9.57;;;4.30;;
18905;SDS011;9585;51.018;4.282;2023-08-08T04:53:50;5.38;;;3.50;;
18905;SDS011;9585;51.018;4.282;2023-08-08T04:56:20;8.27;;;4.22;;
18905;SDS011;9585;51.018;4.282;2023-08-08T04:58:53;10.60;;;4.03;;
18905;SDS011;9585;51.018;4.282;2023-08-08T05:01:20;7.82;;;3.65;;
18905;SDS011;9585;51.018;4.282;2023-08-08T05:03:56;7.90;;;3.70;;
18905;SDS011;9585;51.018;4.282;2023-08-08T05:06:24;8.40;;;3.97;;
18905;SDS011;9585;51.018;4.282;2023-08-08T05:08:52;10.75;;;3.83;;
18905;SDS011;9585;51.018;4.282;2023-08-08T05:11:19;8.80;;;3.20;;
18905;SDS011;9585;51.018;4.282;2023-08-08T05:13:47;10.95;;;3.75;;
18905;SDS011;9585;51.018;4.282;2023-08-08T05:16:15;8.95;;;3.08;;
18905;SDS011;9585;51.018;4.282;2023-08-08T05:18:43;7.38;;;2.80;;
18905;SDS011;9585;51.018;4.282;2023-08-08T05:21:13;4.63;;;2.60;;
18905;SDS011;9585;51.018;4.282;2023-08-08T05:23:41;10.32;;;2.60;;
18905;SDS011;9585;51.018;4.282;2023-08-08T05:26:09;5.60;;;2.45;;
18905;SDS011;9585;51.018;4.282;2023-08-08T05:28:36;7.40;;;2.63;;
18905;SDS011;9585;51.018;4.282;2023-08-08T05:31:04;6.97;;;2.22;;
18905;SDS011;9585;51.018;4.282;2023-08-08T05:33:32;8.48;;;2.55;;
18905;SDS011;9585;51.018;4.282;2023-08-08T05:36:00;6.65;;;2.10;;
18905;SDS011;9585;51.018;4.282;2023-08-08T05:38:30;9.35;;;2.50;;
18905;SDS011;9585;51.018;4.282;2023-08-08T05:41:00;7.10;;;2.33;;
18905;SDS011;9585;51.018;4.282;2023-08-08T05:43:28;6.32;;;2.05;;
18905;SDS011;9585;51.018;4.282;2023-08-08T05:45:56;5.00;;;2.17;;
18905;SDS011;9585;51.018;4.282;2023-08-08T05:48:24;4.78;;;2.17;;
18905;SDS011;9585;51.018;4.282;2023-08-08T05:50:51;6.57;;;2.25;;
18905;SDS011;9585;51.018;4.282;2023-08-08T05:53:19;5.85;;;1.90;;
18905;SDS011;9585;51.018;4.282;2023-08-08T05:55:48;6.50;;;1.95;;
18905;SDS011;9585;51.018;4.282;2023-08-08T05:58:16;6.45;;;2.35;;
18905;SDS011;9585;51.018;4.282;2023-08-08T06:00:44;4.35;;;2.05;;
18905;SDS011;9585;51.018;4.282;2023-08-08T06:03:12;4.57;;;2.03;;
18905;SDS011;9585;51.018;4.282;2023-08-08T06:05:43;4.90;;;1.92;;
18905;SDS011;9585;51.018;4.282;2023-08-08T06:08:11;4.90;;;2.15;;
18905;SDS011;9585;51.018;4.282;2023-08-08T06:10:41;6.05;;;2.30;;
18905;SDS011;9585;51.018;4.282;2023-08-08T06:13:10;6.22;;;2.17;;
18905;SDS011;9585;51.018;4.282;2023-08-08T06:15:38;8.20;;;2.40;;
18905;SDS011;9585;51.018;4.282;2023-08-08T06:18:11;5.63;;;2.53;;
18905;SDS011;9585;51.018;4.282;2023-08-08T06:20:38;5.55;;;2.13;;
18905;SDS011;9585;51.018;4.282;2023-08-08T06:23:10;6.40;;;2.30;;
18905;SDS011;9585;51.018;4.282;2023-08-08T06:25:40;6.18;;;2.00;;
18905;SDS011;9585;51.018;4.282;2023-08-08T06:28:11;7.22;;;2.03;;
18905;SDS011;9585;51.018;4.282;2023-08-08T06:30:38;5.30;;;2.00;;
18905;SDS011;9585;51.018;4.282;2023-08-08T06:33:10;7.07;;;2.40;;
18905;SDS011;9585;51.018;4.282;2023-08-08T06:35:38;6.32;;;2.28;;
18905;SDS011;9585;51.018;4.282;2023-08-08T06:38:16;7.25;;;2.08;;
18905;SDS011;9585;51.018;4.282;2023-08-08T06:40:47;4.78;;;1.83;;
18905;SDS011;9585;51.018;4.282;2023-08-08T06:43:16;6.07;;;2.00;;
18905;SDS011;9585;51.018;4.282;2023-08-08T06:45:43;8.73;;;2.30;;
18905;SDS011;9585;51.018;4.282;2023-08-08T06:48:11;5.68;;;2.00;;
18905;SDS011;9585;51.018;4.282;2023-08-08T06:50:41;7.72;;;2.38;;
18905;SDS011;9585;51.018;4.282;2023-08-08T06:53:10;5.97;;;2.30;;
18905;SDS011;9585;51.018;4.282;2023-08-08T06:55:39;5.32;;;2.40;;
18905;SDS011;9585;51.018;4.282;2023-08-08T06:58:17;6.40;;;2.50;;
18905;SDS011;9585;51.018;4.282;2023-08-08T07:00:44;7.32;;;1.95;;
18905;SDS011;9585;51.018;4.282;2023-08-08T07:03:11;9.05;;;2.58;;
18905;SDS011;9585;51.018;4.282;2023-08-08T07:05:39;7.72;;;2.28;;
18905;SDS011;9585;51.018;4.282;2023-08-08T07:08:09;7.45;;;2.25;;
18905;SDS011;9585;51.018;4.282;2023-08-08T07:10:59;6.90;;;2.15;;
18905;SDS011;9585;51.018;4.282;2023-08-08T07:13:30;6.72;;;2.10;;
18905;SDS011;9585;51.018;4.282;2023-08-08T07:16:06;5.78;;;2.40;;
18905;SDS011;9585;51.018;4.282;2023-08-08T07:18:37;6.75;;;2.10;;
18905;SDS011;9585;51.018;4.282;2023-08-08T07:21:04;6.75;;;2.17;;
18905;SDS011;9585;51.018;4.282;2023-08-08T07:23:36;6.70;;;2.30;;
18905;SDS011;9585;51.018;4.282;2023-08-08T07:26:07;6.47;;;2.10;;
18905;SDS011;9585;51.018;4.282;2023-08-08T07:28:36;7.22;;;2.50;;
18905;SDS011;9585;51.018;4.282;2023-08-08T07:31:03;5.85;;;2.25;;
18905;SDS011;9585;51.018;4.282;2023-08-08T07:33:31;7.72;;;2.28;;
18905;SDS011;9585;51.018;4.282;2023-08-08T07:35:59;3.92;;;2.15;;
18905;SDS011;9585;51.018;4.282;2023-08-08T07:38:29;6.68;;;2.05;;
18905;SDS011;9585;51.018;4.282;2023-08-08T07:41:00;6.63;;;2.33;;
18905;SDS011;9585;51.018;4.282;2023-08-08T07:43:28;7.57;;;2.40;;
18905;SDS011;9585;51.018;4.282;2023-08-08T07:45:58;6.95;;;1.95;;
18905;SDS011;9585;51.018;4.282;2023-08-08T07:48:26;7.13;;;2.33;;
18905;SDS011;9585;51.018;4.282;2023-08-08T07:50:56;5.50;;;2.30;;
18905;SDS011;9585;51.018;4.282;2023-08-08T07:53:23;7.55;;;2.47;;
18905;SDS011;9585;51.018;4.282;2023-08-08T07:55:51;6.28;;;2.10;;
18905;SDS011;9585;51.018;4.282;2023-08-08T07:58:27;5.88;;;1.90;;
18905;SDS011;9585;51.018;4.282;2023-08-08T08:01:07;7.40;;;2.35;;
18905;SDS011;9585;51.018;4.282;2023-08-08T08:03:38;4.85;;;1.90;;
18905;SDS011;9585;51.018;4.282;2023-08-08T08:06:10;7.40;;;2.38;;
18905;SDS011;9585;51.018;4.282;2023-08-08T08:08:41;6.03;;;2.13;;
18905;SDS011;9585;51.018;4.282;2023-08-08T08:11:09;4.72;;;1.90;;
18905;SDS011;9585;51.018;4.282;2023-08-08T08:13:40;5.13;;;1.70;;
18905;SDS011;9585;51.018;4.282;2023-08-08T08:16:09;4.68;;;2.33;;
18905;SDS011;9585;51.018;4.282;2023-08-08T08:18:43;5.53;;;2.20;;
18905;SDS011;9585;51.018;4.282;2023-08-08T08:21:11;4.53;;;1.98;;
18905;SDS011;9585;51.018;4.282;2023-08-08T08:23:42;5.60;;;2.30;;
18905;SDS011;9585;51.018;4.282;2023-08-08T08:26:12;5.65;;;2.40;;
18905;SDS011;9585;51.018;4.282;2023-08-08T08:28:40;6.85;;;2.53;;
18905;SDS011;9585;51.018;4.282;2023-08-08T08:31:07;8.48;;;2.83;;
18905;SDS011;9585;51.018;4.282;2023-08-08T08:33:49;5.28;;;2.40;;
18905;SDS011;9585;51.018;4.282;2023-08-08T08:36:16;5.95;;;2.17;;
18905;SDS011;9585;51.018;4.282;2023-08-08T08:38:51;5.85;;;2.60;;
18905;SDS011;9585;51.018;4.282;2023-08-08T08:41:21;3.70;;;2.38;;
18905;SDS011;9585;51.018;4.282;2023-08-08T08:43:59;7.40;;;2.35;;
18905;SDS011;9585;51.018;4.282;2023-08-08T08:46:36;6.50;;;2.40;;
18905;SDS011;9585;51.018;4.282;2023-08-08T08:49:19;4.63;;;2.20;;
18905;SDS011;9585;51.018;4.282;2023-08-08T08:51:48;8.20;;;2.40;;
18905;SDS011;9585;51.018;4.282;2023-08-08T08:54:16;5.47;;;2.58;;
18905;SDS011;9585;51.018;4.282;2023-08-08T08:56:46;5.88;;;2.20;;
18905;SDS011;9585;51.018;4.282;2023-08-08T08:59:14;7.47;;;2.42;;
18905;SDS011;9585;51.018;4.282;2023-08-08T09:01:46;4.95;;;2.05;;
18905;SDS011;9585;51.018;4.282;2023-08-08T09:04:14;5.30;;;1.90;;
18905;SDS011;9585;51.018;4.282;2023-08-08T09:06:44;3.67;;;2.03;;
18905;SDS011;9585;51.018;4.282;2023-08-08T09:09:14;6.15;;;2.30;;
18905;SDS011;9585;51.018;4.282;2023-08-08T09:11:42;5.35;;;2.10;;
18905;SDS011;9585;51.018;4.282;2023-08-08T09:14:15;4.85;;;2.47;;
18905;SDS011;9585;51.018;4.282;2023-08-08T09:19:19;5.05;;;2.08;;
18905;SDS011;9585;51.018;4.282;2023-08-08T09:21:48;7.20;;;2.20;;
18905;SDS011;9585;51.018;4.282;2023-08-08T09:24:16;3.53;;;1.75;;
18905;SDS011;9585;51.018;4.282;2023-08-08T09:26:45;3.50;;;2.03;;
18905;SDS011;9585;51.018;4.282;2023-08-08T09:29:14;4.13;;;2.33;;
18905;SDS011;9585;51.018;4.282;2023-08-08T09:31:41;3.13;;;1.90;;
18905;SDS011;9585;51.018;4.282;2023-08-08T09:34:09;5.22;;;2.17;;
18905;SDS011;9585;51.018;4.282;2023-08-08T09:36:38;4.03;;;2.10;;
18905;SDS011;9585;51.018;4.282;2023-08-08T09:39:06;4.43;;;2.35;;
18905;SDS011;9585;51.018;4.282;2023-08-08T09:41:34;3.88;;;2.17;;
18905;SDS011;9585;51.018;4.282;2023-08-08T09:44:01;7.95;;;2.80;;
18905;SDS011;9585;51.018;4.282;2023-08-08T09:46:29;4.72;;;2.40;;
18905;SDS011;9585;51.018;4.282;2023-08-08T09:48:57;4.75;;;2.70;;
18905;SDS011;9585;51.018;4.282;2023-08-08T09:51:25;3.55;;;2.67;;
18905;SDS011;9585;51.018;4.282;2023-08-08T09:53:54;4.60;;;2.50;;
18905;SDS011;9585;51.018;4.282;2023-08-08T09:56:23;5.35;;;2.58;;
18905;SDS011;9585;51.018;4.282;2023-08-08T09:58:51;4.10;;;2.50;;
18905;SDS011;9585;51.018;4.282;2023-08-08T10:01:19;5.35;;;2.30;;
18905;SDS011;9585;51.018;4.282;2023-08-08T10:03:47;5.15;;;2.63;;
18905;SDS011;9585;51.018;4.282;2023-08-08T10:06:17;5.15;;;2.30;;
18905;SDS011;9585;51.018;4.282;2023-08-08T10:08:45;2.88;;;1.98;;
18905;SDS011;9585;51.018;4.282;2023-08-08T10:11:15;4.43;;;2.50;;
18905;SDS011;9585;51.018;4.282;2023-08-08T10:13:46;4.75;;;2.80;;
18905;SDS011;9585;51.018;4.282;2023-08-08T10:16:15;5.20;;;2.60;;
18905;SDS011;9585;51.018;4.282;2023-08-08T10:18:43;6.40;;;3.05;;
